Dymchurch, United Kingdom
Current Conditions -  °F | °C
As of 7:20 AM on Sunday 23 Nov 2014 (Local Time) from EGMC Reporting Station
Light Rain Light Rain  
Wind Chill: 11°   Ceiling: 400
Heat Index: 11°   Visibility: 4mi
Dew Point: 10°   Wind: 8mph
Humidity: 94%   Direction: 330°NNW
Pressure: 29.94"   Gusts: NA
Location:  51.03°N, 0.99°E
Report Text: EGMC 230720Z 33007KT 300V360 6000 -RADZ OVC004 11/10 Q1014
Loading
Personal Weather Stations






























Interactive Weather Map New forecast layout! Learn more

10-Day Weather Forecast

Advertisements
Track Severe Weather on mobile